Time;durP1;ratioP1;P1;durP2;ratioP2;P2;SDS_P1;SDS_P2;PMS_P1;PMS_P2;Temp;Humidity;BMP_temperature;BMP_pressure;BME280_temperature;BME280_humidity;BME280_pressure;Samples;Min_cycle;Max_cycle;Signal;HPM_P1;HPM_P2
2023/08/19 00:02:08;;;;;;;16.63;10.85;;;27.00;92.90;;;;;;5053575;28;20056;-70
2023/08/19 00:05:13;;;;;;;16.92;10.10;;;27.00;92.80;;;;;;5053778;28;20048;-71
2023/08/19 00:08:16;;;;;;;14.90;10.52;;;26.90;92.70;;;;;;5053742;28;20053;-70
2023/08/19 00:11:20;;;;;;;14.00;10.65;;;26.90;92.80;;;;;;5053793;28;20047;-70
2023/08/19 00:14:24;;;;;;;20.65;11.73;;;26.80;93.00;;;;;;5053715;28;20044;-70
2023/08/19 00:17:29;;;;;;;15.43;10.95;;;26.80;93.20;;;;;;5053338;28;20392;-70
2023/08/19 00:20:33;;;;;;;21.50;11.25;;;26.70;93.20;;;;;;5053325;28;20048;-70
2023/08/19 00:23:37;;;;;;;15.50;10.82;;;26.60;93.40;;;;;;5053424;28;20056;-70
2023/08/19 00:26:41;;;;;;;25.38;11.70;;;26.50;93.50;;;;;;5052706;28;20500;-71
2023/08/19 00:29:45;;;;;;;21.35;11.82;;;26.40;93.70;;;;;;5052296;28;20055;-70
2023/08/19 00:32:48;;;;;;;17.98;12.02;;;26.40;93.80;;;;;;5052174;28;20055;-70
2023/08/19 00:35:53;;;;;;;19.88;11.68;;;26.30;93.80;;;;;;5051841;28;20499;-69
2023/08/19 00:38:58;;;;;;;20.83;12.63;;;26.30;94.00;;;;;;5040851;28;20492;-70
2023/08/19 00:42:02;;;;;;;16.90;11.75;;;26.40;94.00;;;;;;5040667;28;20056;-70
2023/08/19 00:45:07;;;;;;;20.67;12.23;;;26.40;93.90;;;;;;5052978;28;20048;-70
2023/08/19 00:48:12;;;;;;;18.73;11.98;;;26.40;93.90;;;;;;5052919;28;20503;-70
2023/08/19 00:51:17;;;;;;;19.27;12.55;;;26.40;94.00;;;;;;5052637;28;20051;-70
2023/08/19 00:54:21;;;;;;;19.30;11.82;;;26.30;94.00;;;;;;5052506;28;20500;-70
2023/08/19 00:57:25;;;;;;;19.48;12.85;;;26.30;94.30;;;;;;5052395;28;20047;-70
2023/08/19 01:00:31;;;;;;;19.60;11.75;;;26.30;94.20;;;;;;5051565;28;20537;-70
2023/08/19 01:03:35;;;;;;;15.05;11.73;;;26.30;94.50;;;;;;5052484;28;20048;-70
2023/08/19 01:06:53;;;;;;;21.50;15.00;;;26.40;94.20;;;;;;5052522;28;20064;-70
2023/08/19 01:10:17;;;;;;;19.20;13.25;;;26.30;94.10;;;;;;5052656;28;20047;-70
2023/08/19 01:13:27;;;;;;;17.40;11.30;;;26.30;94.30;;;;;;5052538;28;20051;-70
2023/08/19 01:16:32;;;;;;;16.00;11.82;;;26.20;94.30;;;;;;5052002;28;20508;-70
2023/08/19 01:19:39;;;;;;;20.52;11.30;;;26.10;94.50;;;;;;5052372;28;20187;-70
2023/08/19 01:22:55;;;;;;;18.02;11.63;;;26.00;94.70;;;;;;5052097;28;20056;-69
2023/08/19 01:26:01;;;;;;;22.67;12.55;;;26.00;94.70;;;;;;5052063;28;20048;-70
2023/08/19 01:29:05;;;;;;;17.75;11.43;;;26.00;94.90;;;;;;5051345;28;20393;-70
2023/08/19 01:32:09;;;;;;;19.58;11.63;;;25.80;95.00;;;;;;5052025;28;20524;-70
2023/08/19 01:35:14;;;;;;;19.55;12.15;;;25.80;95.10;;;;;;5051292;28;20068;-70
2023/08/19 01:38:42;;;;;;;25.13;13.38;;;25.80;95.20;;;;;;5050924;28;20067;-70
2023/08/19 01:41:46;;;;;;;15.70;11.43;;;25.90;95.20;;;;;;5050881;28;20068;-70
2023/08/19 01:44:51;;;;;;;20.50;12.45;;;26.00;94.90;;;;;;5051056;28;20401;-71
2023/08/19 01:47:55;;;;;;;16.95;13.38;;;26.00;94.70;;;;;;5051775;28;20068;-70
2023/08/19 01:50:58;;;;;;;26.48;17.80;;;26.00;94.60;;;;;;5051884;28;20496;-71
2023/08/19 01:54:03;;;;;;;19.02;14.98;;;25.90;94.80;;;;;;5050680;28;20306;-70
2023/08/19 01:57:07;;;;;;;18.33;13.50;;;25.80;95.00;;;;;;5051633;28;20677;-70
2023/08/19 02:00:11;;;;;;;20.05;14.18;;;25.80;95.00;;;;;;5050562;28;20059;-71
2023/08/19 02:03:21;;;;;;;21.20;13.38;;;25.80;94.90;;;;;;5051312;28;20060;-71
2023/08/19 02:06:25;;;;;;;16.50;13.18;;;25.80;95.00;;;;;;5051584;28;20039;-70
2023/08/19 02:09:29;;;;;;;17.20;12.70;;;25.80;95.10;;;;;;5050379;28;20044;-70
2023/08/19 02:12:32;;;;;;;18.67;13.15;;;25.80;95.00;;;;;;5038851;28;20044;-70
2023/08/19 02:15:37;;;;;;;23.42;13.80;;;25.80;95.10;;;;;;5051263;28;20048;-71
2023/08/19 02:18:40;;;;;;;25.02;13.40;;;25.80;95.20;;;;;;5050288;28;20397;-71
2023/08/19 02:21:45;;;;;;;21.30;13.63;;;25.70;95.20;;;;;;5051013;28;20056;-70
2023/08/19 02:24:49;;;;;;;20.40;13.10;;;25.60;95.20;;;;;;5050928;28;20039;-70
2023/08/19 02:27:52;;;;;;;17.00;12.57;;;25.70;95.30;;;;;;5051226;28;20048;-71
2023/08/19 02:31:02;;;;;;;18.98;12.93;;;25.70;95.20;;;;;;5050265;28;20064;-70
2023/08/19 02:34:06;;;;;;;14.98;13.10;;;25.60;95.20;;;;;;5049991;28;20064;-71
2023/08/19 02:37:13;;;;;;;19.38;13.10;;;25.60;95.40;;;;;;5049824;28;20048;-70
2023/08/19 02:40:16;;;;;;;14.52;12.63;;;25.60;95.50;;;;;;5050385;28;20052;-70
2023/08/19 02:43:20;;;;;;;14.77;12.95;;;25.60;95.30;;;;;;5050788;28;20404;-71
2023/08/19 02:46:24;;;;;;;18.55;12.98;;;25.70;95.30;;;;;;5050958;28;20056;-70
2023/08/19 02:49:28;;;;;;;19.50;13.90;;;25.60;95.20;;;;;;5050825;28;20052;-71
2023/08/19 02:52:32;;;;;;;20.05;13.48;;;25.70;95.30;;;;;;5050180;28;20048;-70
2023/08/19 02:55:41;;;;;;;22.35;15.65;;;25.60;95.40;;;;;;5049995;28;20232;-70
2023/08/19 02:58:44;;;;;;;23.23;15.57;;;25.50;95.60;;;;;;5050078;28;20393;-70
2023/08/19 03:01:49;;;;;;;23.70;15.93;;;25.40;95.70;;;;;;5049726;28;20072;-71
2023/08/19 03:04:52;;;;;;;20.58;15.52;;;25.40;95.70;;;;;;5049482;28;20503;-70
2023/08/19 03:07:56;;;;;;;33.65;19.27;;;25.30;95.90;;;;;;5050270;28;20052;-71
2023/08/19 03:11:00;;;;;;;25.65;16.40;;;25.30;95.90;;;;;;5050200;28;20036;-71
2023/08/19 03:14:04;;;;;;;23.10;13.88;;;25.40;95.90;;;;;;5049768;28;20040;-70
2023/08/19 03:17:08;;;;;;;22.10;14.00;;;25.40;95.50;;;;;;5049615;28;20396;-71
2023/08/19 03:20:12;;;;;;;22.08;13.57;;;25.40;95.60;;;;;;5050444;28;20393;-71
2023/08/19 03:23:16;;;;;;;22.48;14.15;;;25.40;95.70;;;;;;5049877;28;20056;-71
2023/08/19 03:26:20;;;;;;;23.80;12.95;;;25.30;95.60;;;;;;5049484;28;20040;-71
2023/08/19 03:29:25;;;;;;;18.67;13.40;;;25.30;95.90;;;;;;5049786;28;20048;-71
2023/08/19 03:32:30;;;;;;;18.83;12.68;;;25.30;95.50;;;;;;5050345;28;20044;-71
2023/08/19 03:35:34;;;;;;;24.02;13.57;;;25.30;95.60;;;;;;5050269;28;20048;-71
2023/08/19 03:38:38;;;;;;;16.98;13.23;;;25.20;95.80;;;;;;5049704;28;20048;-71
2023/08/19 03:41:42;;;;;;;21.00;14.75;;;25.10;95.70;;;;;;5050497;28;20044;-71
2023/08/19 03:44:46;;;;;;;20.08;13.80;;;25.10;95.60;;;;;;5050104;28;20052;-70
2023/08/19 03:47:50;;;;;;;17.77;12.23;;;25.20;95.50;;;;;;5049720;28;20044;-71
2023/08/19 03:50:54;;;;;;;17.92;13.10;;;25.20;95.40;;;;;;5050372;28;20064;-71
2023/08/19 03:53:58;;;;;;;21.63;12.85;;;25.30;95.30;;;;;;5049494;28;20048;-70
2023/08/19 03:57:02;;;;;;;19.85;12.65;;;25.20;95.10;;;;;;5049388;28;20040;-71
2023/08/19 04:00:06;;;;;;;15.90;12.55;;;25.20;95.30;;;;;;5050112;28;20507;-70
2023/08/19 04:03:17;;;;;;;18.35;12.63;;;25.20;95.20;;;;;;5053658;28;20060;-70
2023/08/19 04:06:23;;;;;;;20.60;12.52;;;25.10;95.10;;;;;;5052973;28;20040;-70
2023/08/19 04:09:27;;;;;;;18.17;12.50;;;25.00;95.40;;;;;;5053482;28;20052;-72
2023/08/19 04:12:32;;;;;;;20.17;11.73;;;25.00;95.40;;;;;;5053504;28;20036;-71
2023/08/19 04:15:35;;;;;;;19.05;12.27;;;25.00;95.30;;;;;;5052420;28;20040;-71
2023/08/19 04:18:39;;;;;;;20.88;12.02;;;25.10;95.00;;;;;;5052712;28;20059;-70
2023/08/19 04:21:43;;;;;;;17.02;11.40;;;25.10;95.20;;;;;;5053406;28;20052;-70
2023/08/19 04:24:51;;;;;;;17.15;11.10;;;25.10;94.60;;;;;;5053131;28;20052;-70
2023/08/19 04:27:56;;;;;;;15.52;11.60;;;25.10;94.90;;;;;;5052933;28;20044;-70
2023/08/19 04:31:06;;;;;;;19.88;12.23;;;25.10;94.80;;;;;;5052428;28;20052;-70
2023/08/19 04:34:17;;;;;;;13.65;10.95;;;25.10;94.90;;;;;;5052310;28;20495;-70
2023/08/19 04:37:22;;;;;;;17.33;11.93;;;25.10;94.80;;;;;;5051824;28;20052;-70
2023/08/19 04:40:26;;;;;;;16.00;12.10;;;24.90;94.80;;;;;;5052291;28;20056;-70
2023/08/19 04:43:30;;;;;;;21.33;12.45;;;24.90;95.10;;;;;;5051877;28;20063;-69
2023/08/19 04:46:35;;;;;;;19.75;12.40;;;24.80;95.20;;;;;;5051962;28;20040;-71
2023/08/19 04:49:40;;;;;;;17.83;12.48;;;24.90;95.30;;;;;;5052264;28;20056;-70
2023/08/19 04:52:45;;;;;;;18.30;12.63;;;24.80;95.30;;;;;;5052248;28;20286;-70
2023/08/19 04:55:57;;;;;;;19.83;12.23;;;24.80;95.50;;;;;;5052628;28;20412;-69
2023/08/19 04:59:02;;;;;;;18.95;12.13;;;24.70;95.80;;;;;;5052061;28;20393;-70
2023/08/19 05:02:07;;;;;;;18.00;12.50;;;24.90;95.60;;;;;;5051655;28;20551;-71
2023/08/19 05:05:11;;;;;;;19.45;13.10;;;25.10;95.10;;;;;;5039940;28;20496;-69
2023/08/19 05:08:15;;;;;;;20.23;12.23;;;25.30;94.70;;;;;;5051335;28;20060;-70
2023/08/19 05:11:20;;;;;;;16.02;11.98;;;25.50;94.70;;;;;;5051518;28;20047;-71
2023/08/19 05:14:27;;;;;;;20.60;11.35;;;25.80;94.80;;;;;;5040281;28;20098;-70
2023/08/19 05:17:31;;;;;;;13.35;10.30;;;26.80;93.30;;;;;;5051388;28;20048;-70
2023/08/19 05:20:35;;;;;;;15.23;9.55;;;27.90;91.40;;;;;;5039932;28;20044;-70
2023/08/19 05:23:38;;;;;;;14.60;10.07;;;28.70;90.50;;;;;;5052110;28;20051;-70
2023/08/19 05:26:45;;;;;;;17.77;10.82;;;29.40;88.80;;;;;;5052009;28;20523;-71
2023/08/19 05:29:50;;;;;;;14.65;10.35;;;30.00;87.40;;;;;;5052243;28;20047;-70
2023/08/19 05:32:54;;;;;;;18.27;10.57;;;30.30;86.00;;;;;;5051980;28;20048;-71
2023/08/19 05:35:59;;;;;;;23.35;10.80;;;30.70;84.90;;;;;;5051691;28;20508;-70
2023/08/19 05:39:03;;;;;;;23.48;11.68;;;30.40;85.80;;;;;;5051861;28;20052;-71
2023/08/19 05:42:07;;;;;;;20.85;12.05;;;30.10;86.00;;;;;;5051799;28;20055;-71
2023/08/19 05:45:11;;;;;;;23.45;11.85;;;29.70;87.20;;;;;;5051677;28;20040;-71
2023/08/19 05:48:15;;;;;;;28.98;12.48;;;29.30;88.60;;;;;;5052081;28;20064;-71
2023/08/19 05:51:19;;;;;;;29.05;13.00;;;29.20;89.10;;;;;;5051609;28;20044;-70
2023/08/19 05:54:23;;;;;;;28.60;13.20;;;29.00;89.50;;;;;;5050779;28;20397;-71
2023/08/19 05:57:27;;;;;;;21.15;13.25;;;28.80;90.20;;;;;;5051589;28;20508;-70
2023/08/19 06:00:31;;;;;;;25.02;13.40;;;29.00;90.20;;;;;;5050772;28;20048;-70
2023/08/19 06:03:36;;;;;;;20.00;12.35;;;29.10;89.80;;;;;;5051377;28;20052;-70
2023/08/19 06:06:40;;;;;;;19.75;11.20;;;29.20;90.00;;;;;;5051588;28;20056;-71
2023/08/19 06:09:43;;;;;;;25.25;12.20;;;29.30;90.10;;;;;;5051300;28;20060;-71
2023/08/19 06:12:48;;;;;;;14.75;12.13;;;29.50;89.10;;;;;;5051320;28;20396;-71
2023/08/19 06:15:52;;;;;;;15.40;12.10;;;29.50;88.70;;;;;;5051216;28;20516;-70
2023/08/19 06:18:56;;;;;;;21.35;11.70;;;29.60;88.20;;;;;;5051144;28;20059;-70
2023/08/19 06:22:00;;;;;;;17.23;12.05;;;29.80;88.10;;;;;;5050167;28;20059;-71
2023/08/19 06:25:04;;;;;;;17.48;11.93;;;29.90;87.10;;;;;;5050856;28;20402;-71
2023/08/19 06:28:08;;;;;;;15.68;11.45;;;30.10;87.00;;;;;;5051225;28;20044;-70
2023/08/19 06:31:13;;;;;;;26.58;10.68;;;30.30;86.50;;;;;;5051293;28;20397;-71
2023/08/19 06:34:17;;;;;;;20.05;12.52;;;30.50;86.40;;;;;;5050792;28;20048;-71
2023/08/19 06:37:29;;;;;;;29.17;11.77;;;30.50;85.80;;;;;;5050475;28;20055;-71
2023/08/19 06:40:36;;;;;;;23.75;11.52;;;30.70;86.10;;;;;;5050708;28;20401;-70
2023/08/19 06:43:40;;;;;;;18.90;11.70;;;30.70;85.60;;;;;;5050742;28;20063;-71
2023/08/19 06:46:45;;;;;;;17.52;10.40;;;30.90;85.30;;;;;;5050923;28;20063;-71
2023/08/19 06:49:49;;;;;;;20.90;12.45;;;31.10;85.30;;;;;;5050776;28;20044;-70
2023/08/19 06:52:53;;;;;;;25.10;10.43;;;31.40;84.40;;;;;;5051083;28;20369;-70
2023/08/19 06:56:07;;;;;;;23.15;10.73;;;31.70;84.30;;;;;;5050421;28;20508;-71
2023/08/19 06:59:14;;;;;;;13.43;10.13;;;32.00;83.80;;;;;;5050908;28;20041;-71
2023/08/19 07:02:20;;;;;;;25.75;13.52;;;32.20;83.10;;;;;;5050690;28;20048;-70
2023/08/19 07:05:27;;;;;;;26.23;12.20;;;32.20;82.70;;;;;;5049591;28;20060;-69
2023/08/19 07:08:33;;;;;;;29.25;12.23;;;32.10;83.10;;;;;;5050677;28;20040;-70
2023/08/19 07:11:37;;;;;;;18.33;10.88;;;32.50;83.10;;;;;;5050572;28;20422;-70
2023/08/19 07:14:41;;;;;;;16.67;10.63;;;32.80;82.90;;;;;;5050583;28;20067;-70
2023/08/19 07:17:48;;;;;;;20.38;11.95;;;33.10;82.60;;;;;;5050744;28;20040;-69
2023/08/19 07:20:53;;;;;;;26.40;10.85;;;33.40;81.10;;;;;;5049555;28;20048;-70
2023/08/19 07:24:00;;;;;;;18.05;10.43;;;33.60;81.10;;;;;;5050549;28;20174;-70
2023/08/19 07:27:05;;;;;;;18.88;10.95;;;33.80;80.50;;;;;;5049863;28;20044;-70
2023/08/19 07:30:10;;;;;;;18.02;10.15;;;33.80;79.90;;;;;;5050305;28;20052;-68
2023/08/19 07:33:14;;;;;;;17.00;9.75;;;33.80;79.80;;;;;;5050534;28;20499;-70
2023/08/19 07:36:18;;;;;;;15.98;9.73;;;34.00;79.70;;;;;;5051887;28;20063;-72
2023/08/19 07:39:23;;;;;;;15.55;10.43;;;34.00;79.20;;;;;;5053171;28;20059;-70
2023/08/19 07:42:29;;;;;;;18.52;8.90;;;33.80;79.00;;;;;;5054096;28;20550;-70
2023/08/19 07:45:33;;;;;;;19.88;9.32;;;34.00;79.00;;;;;;5053154;28;20071;-70
2023/08/19 07:48:37;;;;;;;17.77;8.93;;;34.30;77.80;;;;;;5054211;28;20048;-70
2023/08/19 07:51:41;;;;;;;21.92;9.80;;;34.40;77.10;;;;;;5053860;28;20047;-70
2023/08/19 07:54:45;;;;;;;14.80;8.30;;;34.30;76.50;;;;;;5054070;28;20512;-69
2023/08/19 07:57:49;;;;;;;9.70;8.65;;;34.30;76.60;;;;;;5053163;28;20055;-70
2023/08/19 08:00:53;;;;;;;12.02;9.40;;;34.30;76.80;;;;;;5053093;28;20036;-71
2023/08/19 08:03:57;;;;;;;21.02;10.30;;;34.20;77.30;;;;;;5053679;28;20416;-71
2023/08/19 08:07:01;;;;;;;26.73;10.02;;;34.10;77.00;;;;;;5053410;28;20040;-70
2023/08/19 08:10:05;;;;;;;23.65;10.15;;;34.00;77.60;;;;;;5053625;28;20052;-70
2023/08/19 08:13:08;;;;;;;20.35;10.85;;;34.00;77.50;;;;;;5053427;28;20400;-70
2023/08/19 08:16:12;;;;;;;12.55;9.35;;;34.00;77.50;;;;;;5053429;28;20052;-69
2023/08/19 08:19:16;;;;;;;14.20;9.27;;;34.00;77.10;;;;;;5052868;28;20036;-70
2023/08/19 08:22:20;;;;;;;23.00;9.32;;;34.20;77.20;;;;;;5053461;28;20044;-70
2023/08/19 08:25:24;;;;;;;18.25;9.07;;;34.20;76.80;;;;;;5053609;28;20381;-70
2023/08/19 08:28:28;;;;;;;15.52;8.98;;;34.30;76.90;;;;;;5053118;28;20040;-70
2023/08/19 08:31:32;;;;;;;12.85;8.63;;;34.50;76.60;;;;;;5053412;28;20048;-70
2023/08/19 08:34:36;;;;;;;15.75;8.40;;;34.60;76.60;;;;;;5053122;28;20044;-71
2023/08/19 08:37:40;;;;;;;14.07;8.57;;;34.60;76.00;;;;;;5052901;28;20048;-71
2023/08/19 08:40:44;;;;;;;13.90;8.82;;;34.50;76.50;;;;;;5053202;28;20048;-70
2023/08/19 08:43:49;;;;;;;11.73;7.75;;;34.50;76.60;;;;;;5052804;28;20051;-71
2023/08/19 08:46:55;;;;;;;21.30;9.40;;;34.60;76.40;;;;;;5052656;28;20044;-71
2023/08/19 08:49:59;;;;;;;14.45;7.50;;;34.60;76.00;;;;;;5053092;28;20055;-70
2023/08/19 08:53:03;;;;;;;20.70;8.43;;;34.70;76.10;;;;;;5052765;28;20036;-70
2023/08/19 08:56:08;;;;;;;9.77;7.10;;;34.60;75.70;;;;;;5051502;28;20056;-70
2023/08/19 08:59:13;;;;;;;12.30;7.47;;;34.60;75.90;;;;;;5052724;28;20032;-70
2023/08/19 09:02:18;;;;;;;12.38;8.80;;;34.70;75.70;;;;;;5052459;28;20052;-71
2023/08/19 09:05:25;;;;;;;13.13;7.82;;;34.70;75.40;;;;;;5051729;28;20050;-71
2023/08/19 09:08:39;;;;;;;14.25;8.18;;;34.70;74.80;;;;;;5052453;28;20381;-71
2023/08/19 09:11:47;;;;;;;20.00;8.43;;;34.50;75.00;;;;;;5052383;28;20048;-70
2023/08/19 09:15:02;;;;;;;15.93;8.23;;;34.40;75.40;;;;;;5051942;28;20036;-70
2023/08/19 09:18:07;;;;;;;15.77;8.07;;;34.40;75.40;;;;;;5051113;28;20151;-71
2023/08/19 09:21:11;;;;;;;11.70;6.68;;;34.50;75.60;;;;;;5052210;28;20040;-70
2023/08/19 09:24:16;;;;;;;15.88;8.05;;;34.50;75.40;;;;;;5052254;28;20047;-70
2023/08/19 09:27:29;;;;;;;9.45;6.55;;;34.50;74.50;;;;;;5051833;28;20399;-70
2023/08/19 09:30:34;;;;;;;32.30;9.70;;;34.50;75.20;;;;;;5052320;28;20326;-70
2023/08/19 09:33:43;;;;;;;10.82;7.32;;;34.60;74.00;;;;;;5051693;28;20043;-70
2023/08/19 09:36:47;;;;;;;20.35;8.40;;;34.40;74.10;;;;;;5051507;28;20067;-70
2023/08/19 09:39:51;;;;;;;10.60;7.47;;;34.40;74.30;;;;;;5051663;28;20040;-71
2023/08/19 09:42:58;;;;;;;13.98;8.63;;;34.40;74.40;;;;;;5050858;28;20052;-69
2023/08/19 09:46:02;;;;;;;12.55;7.20;;;34.40;74.00;;;;;;5051199;28;20040;-70
2023/08/19 09:49:06;;;;;;;8.30;7.38;;;34.50;74.20;;;;;;5051725;28;20048;-70
2023/08/19 09:52:19;;;;;;;9.20;6.95;;;34.50;73.80;;;;;;5051582;28;20059;-70
2023/08/19 09:55:33;;;;;;;11.73;7.00;;;34.70;73.90;;;;;;5051784;28;20056;-70
2023/08/19 09:58:37;;;;;;;13.23;7.65;;;34.80;73.50;;;;;;5050717;28;20048;-69
2023/08/19 10:01:41;;;;;;;10.63;7.18;;;34.90;73.20;;;;;;5051649;28;20068;-70
2023/08/19 10:04:46;;;;;;;7.35;6.65;;;35.00;72.30;;;;;;5050512;28;20059;-70
2023/08/19 10:08:17;;;;;;;11.93;7.55;;;35.00;72.10;;;;;;5051526;28;20056;-70
2023/08/19 10:11:24;;;;;;;13.52;7.78;;;35.20;72.00;;;;;;5051424;28;20044;-70
2023/08/19 10:14:31;;;;;;;9.43;7.00;;;35.10;71.50;;;;;;5051433;28;20060;-70
2023/08/19 10:17:39;;;;;;;10.30;7.20;;;35.20;71.80;;;;;;5050184;28;20044;-69
2023/08/19 10:20:53;;;;;;;8.57;6.97;;;35.20;71.30;;;;;;5051329;28;20043;-69
2023/08/19 10:23:58;;;;;;;12.55;6.68;;;35.30;70.60;;;;;;5050927;28;20052;-71
2023/08/19 10:27:02;;;;;;;14.35;7.50;;;35.30;70.30;;;;;;5051114;28;20040;-69
2023/08/19 10:30:28;;;;;;;11.75;7.68;;;35.20;69.00;;;;;;5050718;28;20508;-69
2023/08/19 10:33:40;;;;;;;7.25;6.53;;;34.70;69.40;;;;;;5051081;28;20044;-71
2023/08/19 10:37:03;;;;;;;12.88;6.72;;;34.60;69.10;;;;;;5050546;28;20060;-69
2023/08/19 10:40:27;;;;;;;7.93;6.45;;;34.70;69.40;;;;;;5051210;28;20431;-70
2023/08/19 10:44:08;;;;;;;10.35;6.82;;;34.80;70.60;;;;;;5050608;28;20059;-71
2023/08/19 10:47:15;;;;;;;8.98;6.70;;;35.00;69.80;;;;;;5048695;28;20159;-69
2023/08/19 10:50:19;;;;;;;9.52;6.53;;;35.10;69.10;;;;;;5049757;28;20052;-71
2023/08/19 10:53:24;;;;;;;12.57;6.70;;;35.20;69.10;;;;;;5051105;28;20036;-70
2023/08/19 10:56:28;;;;;;;9.32;6.90;;;35.30;69.40;;;;;;5050660;28;20052;-70
2023/08/19 10:59:34;;;;;;;8.57;6.75;;;35.30;69.30;;;;;;5050847;28;20390;-70
2023/08/19 11:02:38;;;;;;;11.25;6.63;;;35.30;69.30;;;;;;5050465;28;20044;-70
2023/08/19 11:05:52;;;;;;;13.95;7.15;;;35.20;68.90;;;;;;5050306;28;20043;-70
2023/08/19 11:08:59;;;;;;;11.93;6.93;;;35.10;68.50;;;;;;5050575;28;20052;-70
2023/08/19 11:12:03;;;;;;;11.57;6.50;;;35.10;69.20;;;;;;5054574;28;20504;-70
2023/08/19 11:15:08;;;;;;;11.45;7.00;;;35.10;69.10;;;;;;5054574;28;20040;-71
2023/08/19 11:18:19;;;;;;;11.20;6.32;;;35.20;68.20;;;;;;5054800;28;20052;-70
2023/08/19 11:21:24;;;;;;;9.95;6.10;;;35.10;68.30;;;;;;5054821;28;20043;-70
2023/08/19 11:24:32;;;;;;;6.60;5.78;;;35.00;68.40;;;;;;5054342;28;20056;-69
2023/08/19 11:27:36;;;;;;;14.00;6.82;;;35.00;68.20;;;;;;5054357;28;20043;-69
2023/08/19 11:30:40;;;;;;;11.38;6.60;;;34.90;67.30;;;;;;5054242;28;20044;-70
2023/08/19 11:33:45;;;;;;;7.15;6.15;;;34.90;68.00;;;;;;5054593;28;20523;-70
2023/08/19 11:36:49;;;;;;;7.88;6.05;;;34.90;67.20;;;;;;5053337;28;20056;-69
2023/08/19 11:39:53;;;;;;;12.77;6.90;;;35.00;68.00;;;;;;5053314;28;20040;-71
2023/08/19 11:43:11;;;;;;;9.15;6.03;;;35.00;66.70;;;;;;5053985;28;20044;-70
2023/08/19 11:46:15;;;;;;;16.95;7.45;;;35.00;67.60;;;;;;5054224;28;20044;-70
2023/08/19 11:49:19;;;;;;;12.45;7.75;;;35.10;74.30;;;;;;5054191;28;20059;-70
2023/08/19 11:52:25;;;;;;;12.65;7.47;;;35.20;76.20;;;;;;5053867;28;20052;-70
2023/08/19 11:55:30;;;;;;;12.43;7.35;;;35.20;76.20;;;;;;5054201;28;20052;-70
2023/08/19 11:58:43;;;;;;;12.45;7.50;;;35.20;76.80;;;;;;5054604;28;20044;-70
2023/08/19 12:01:47;;;;;;;12.00;7.15;;;35.10;76.50;;;;;;5053818;28;20044;-71
2023/08/19 12:04:55;;;;;;;9.65;7.43;;;35.10;76.70;;;;;;5053625;28;20056;-70
2023/08/19 12:07:59;;;;;;;10.52;7.70;;;35.00;76.30;;;;;;5053848;28;20052;-70
2023/08/19 12:11:03;;;;;;;15.88;7.15;;;35.10;76.80;;;;;;5053131;28;20298;-70
2023/08/19 12:14:07;;;;;;;11.13;7.32;;;35.00;76.50;;;;;;5053250;28;20044;-70
2023/08/19 12:17:12;;;;;;;8.23;7.20;;;35.00;76.50;;;;;;5053359;28;20040;-70
2023/08/19 12:20:16;;;;;;;12.43;7.75;;;35.00;76.90;;;;;;5053365;28;20067;-70
2023/08/19 12:23:20;;;;;;;11.15;7.75;;;35.10;76.70;;;;;;5053192;28;20048;-70
2023/08/19 12:26:25;;;;;;;10.77;7.68;;;35.00;77.70;;;;;;5053645;28;20405;-70
2023/08/19 12:29:29;;;;;;;10.75;7.57;;;35.00;78.20;;;;;;5053417;28;20425;-70
2023/08/19 12:32:33;;;;;;;9.25;7.28;;;35.00;77.20;;;;;;5053302;28;20515;-69
2023/08/19 12:35:37;;;;;;;13.55;7.68;;;35.00;77.30;;;;;;5053259;28;20051;-69
2023/08/19 12:38:41;;;;;;;10.10;7.45;;;34.90;76.90;;;;;;5053366;28;20052;-70
2023/08/19 12:41:47;;;;;;;10.30;6.95;;;34.90;76.70;;;;;;5053362;28;20051;-70
2023/08/19 12:44:51;;;;;;;14.45;8.00;;;34.90;77.70;;;;;;5052989;28;20048;-71
2023/08/19 12:47:55;;;;;;;10.30;7.57;;;35.00;77.50;;;;;;5053160;28;20044;-70
2023/08/19 12:50:59;;;;;;;12.80;7.72;;;34.90;77.70;;;;;;5052846;28;20048;-70
2023/08/19 12:54:04;;;;;;;12.45;8.23;;;34.90;77.30;;;;;;5053178;28;20044;-71
2023/08/19 12:57:08;;;;;;;14.10;7.72;;;34.90;77.50;;;;;;5052849;28;20056;-71
2023/08/19 13:00:14;;;;;;;12.02;6.97;;;35.00;77.60;;;;;;5052841;28;20047;-66
2023/08/19 13:03:18;;;;;;;10.85;6.80;;;36.00;75.70;;;;;;5052542;28;20040;-67
2023/08/19 13:06:22;;;;;;;11.70;7.35;;;37.20;74.20;;;;;;5053320;28;20422;-68
2023/08/19 13:09:27;;;;;;;14.05;7.28;;;37.70;73.40;;;;;;5052776;28;20052;-66
2023/08/19 13:12:32;;;;;;;18.30;7.57;;;38.00;72.50;;;;;;5052159;28;20048;-66
2023/08/19 13:15:38;;;;;;;16.08;7.35;;;37.70;71.90;;;;;;5052534;28;20052;-67
2023/08/19 13:18:42;;;;;;;11.30;7.32;;;37.90;72.70;;;;;;5052370;28;20048;-66
2023/08/19 13:21:47;;;;;;;11.27;7.80;;;38.30;72.40;;;;;;5052175;28;20040;-67
2023/08/19 13:24:52;;;;;;;8.82;7.47;;;38.20;72.00;;;;;;5052110;28;20056;-68
2023/08/19 13:27:56;;;;;;;11.45;8.48;;;38.60;71.60;;;;;;5052103;28;20040;-68
2023/08/19 13:31:00;;;;;;;19.20;8.73;;;38.50;71.90;;;;;;5051894;28;20048;-67
2023/08/19 13:34:04;;;;;;;16.10;8.20;;;38.30;72.50;;;;;;5052033;28;20036;-66
2023/08/19 13:37:08;;;;;;;17.13;7.47;;;37.80;73.20;;;;;;5051826;28;20440;-68
2023/08/19 13:40:12;;;;;;;11.30;8.10;;;37.50;74.50;;;;;;5052045;28;20500;-68
2023/08/19 13:43:16;;;;;;;9.57;7.60;;;37.30;74.80;;;;;;5051926;28;20044;-65
2023/08/19 13:46:20;;;;;;;12.98;7.55;;;37.30;75.60;;;;;;5051890;28;20254;-66
2023/08/19 13:49:25;;;;;;;10.13;8.32;;;37.50;75.70;;;;;;5051713;28;20504;-65
2023/08/19 13:52:40;;;;;;;10.65;8.05;;;37.40;74.80;;;;;;5051094;28;20408;-66
2023/08/19 13:55:44;;;;;;;14.13;8.30;;;37.40;74.10;;;;;;5049635;28;20048;-66
2023/08/19 13:58:48;;;;;;;14.95;7.88;;;37.20;74.30;;;;;;5049970;28;20044;-66
2023/08/19 14:01:52;;;;;;;11.65;8.25;;;37.20;75.00;;;;;;5050855;28;20373;-67
2023/08/19 14:04:56;;;;;;;10.98;7.40;;;37.40;73.30;;;;;;5050615;28;20060;-66
2023/08/19 14:08:00;;;;;;;9.73;7.70;;;37.30;72.60;;;;;;5051147;28;20044;-68
2023/08/19 14:11:05;;;;;;;16.10;7.80;;;37.50;72.00;;;;;;5051597;28;20055;-68
2023/08/19 14:14:09;;;;;;;11.82;7.53;;;37.60;71.10;;;;;;5051152;28;20044;-67
2023/08/19 14:17:13;;;;;;;14.82;8.13;;;37.60;72.10;;;;;;5051115;28;20044;-68
2023/08/19 14:20:17;;;;;;;14.75;8.43;;;37.50;72.40;;;;;;5050476;28;20052;-68
2023/08/19 14:23:21;;;;;;;16.92;8.10;;;36.80;73.60;;;;;;5050433;28;20060;-70
2023/08/19 14:26:28;;;;;;;11.43;8.10;;;36.50;74.70;;;;;;5049853;28;20048;-69
2023/08/19 14:29:32;;;;;;;11.88;7.88;;;36.70;74.40;;;;;;5050357;28;20052;-68
2023/08/19 14:32:36;;;;;;;14.80;8.40;;;37.40;73.20;;;;;;5050680;28;20048;-69
2023/08/19 14:35:45;;;;;;;15.85;8.50;;;37.70;72.70;;;;;;5050958;28;20052;-68
2023/08/19 14:38:48;;;;;;;16.13;8.15;;;37.70;72.90;;;;;;5030973;28;20060;-68
2023/08/19 14:41:52;;;;;;;17.85;8.43;;;37.90;72.30;;;;;;5031237;28;20044;-67
2023/08/19 14:44:56;;;;;;;16.88;8.23;;;37.90;72.60;;;;;;5029873;28;20053;-70
2023/08/19 14:48:00;;;;;;;19.75;8.20;;;37.40;72.80;;;;;;5028704;28;20036;-70
2023/08/19 14:51:04;;;;;;;11.55;7.63;;;36.60;73.50;;;;;;5029041;28;20508;-69
2023/08/19 14:54:08;;;;;;;14.90;8.32;;;36.10;74.30;;;;;;5029023;28;20052;-69
2023/08/19 14:57:12;;;;;;;10.20;7.70;;;35.70;76.10;;;;;;5030465;28;20049;-70
2023/08/19 15:00:16;;;;;;;10.18;7.43;;;35.40;76.60;;;;;;5030187;28;20040;-70
2023/08/19 15:03:21;;;;;;;10.75;8.10;;;35.20;76.80;;;;;;5030474;28;20041;-69
2023/08/19 15:06:24;;;;;;;15.07;8.43;;;35.00;77.50;;;;;;5030987;28;20049;-68
2023/08/19 15:09:29;;;;;;;38.83;8.00;;;34.90;78.60;;;;;;5030403;28;20060;-70
2023/08/19 15:12:33;;;;;;;23.95;7.60;;;34.80;75.20;;;;;;5030737;28;20068;-70
2023/08/19 15:15:38;;;;;;;29.08;8.63;;;34.60;76.50;;;;;;5030557;28;20112;-69
2023/08/19 15:18:41;;;;;;;26.92;9.63;;;34.60;77.60;;;;;;5030466;28;20052;-69
2023/08/19 15:21:45;;;;;;;31.60;8.52;;;34.50;77.50;;;;;;5030430;28;20052;-69
2023/08/19 15:24:54;;;;;;;17.42;8.45;;;34.30;77.40;;;;;;5030414;28;20060;-70
2023/08/19 15:27:58;;;;;;;18.60;7.60;;;34.30;78.20;;;;;;5030128;28;20421;-70
2023/08/19 15:31:02;;;;;;;21.98;7.57;;;34.20;78.00;;;;;;5030392;28;20045;-68
2023/08/19 15:34:06;;;;;;;13.60;8.40;;;34.10;78.40;;;;;;5029215;28;20065;-68
2023/08/19 15:37:14;;;;;;;10.43;8.00;;;34.00;80.00;;;;;;5042481;28;20599;-69
2023/08/19 15:40:18;;;;;;;12.43;7.70;;;34.00;80.80;;;;;;5050098;28;20040;-69
2023/08/19 15:43:22;;;;;;;9.68;8.05;;;34.00;81.30;;;;;;5050139;28;20060;-69
2023/08/19 15:46:25;;;;;;;13.60;8.35;;;34.00;81.70;;;;;;5050132;28;20044;-69
2023/08/19 15:49:29;;;;;;;8.77;7.20;;;33.90;81.70;;;;;;5050382;28;20044;-68